Time,TemperatureF,DewpointF,PressureIn,WindDirection,WindDirectionDegrees,WindSpeedMPH,WindSpeedGustMPH,Humidity,HourlyPrecipIn,Conditions,Clouds,dailyrainin,SoftwareType,DateUTC
2013-09-19 00:01:00,62.1,58.5,29.82,ESE,112,0.0,0.0,88,0.00,CLR,CLR,0.00,WeatherDisplay:10.37,2013-09-19 04:01:00,
2013-09-19 00:02:00,62.1,58.5,29.82,SE,135,0.0,0.0,88,0.00,CLR,CLR,0.00,WeatherDisplay:10.37,2013-09-19 04:02:00,
2013-09-19 00:05:00,62.1,58.5,29.82,ESE,112,0.0,0.0,88,0.00,CLR,CLR,0.00,WeatherDisplay:10.37,2013-09-19 04:05:00,
2013-09-19 00:10:00,62.2,58.6,29.82,ESE,112,0.0,0.0,88,0.00,CLR,CLR,0.00,WeatherDisplay:10.37,2013-09-19 04:10:00,
2013-09-19 00:12:00,62.2,58.6,29.81,ESE,112,0.0,0.0,88,0.00,CLR,CLR,0.00,WeatherDisplay:10.37,2013-09-19 04:12:00,
2013-09-19 00:14:00,62.4,59.1,29.82,SSE,158,0.0,0.0,89,0.00,CLR,CLR,0.00,WeatherDisplay:10.37,2013-09-19 04:14:00,
2013-09-19 00:15:00,62.4,59.1,29.82,SE,135,0.0,0.0,89,0.00,CLR,CLR,0.00,WeatherDisplay:10.37,2013-09-19 04:15:00,
2013-09-19 00:20:00,62.4,59.1,29.82,SE,135,0.0,0.0,89,0.00,CLR,CLR,0.00,WeatherDisplay:10.37,2013-09-19 04:20:00,
2013-09-19 00:25:00,62.4,59.1,29.82,East,90,0.0,0.0,89,0.00,CLR,CLR,0.00,WeatherDisplay:10.37,2013-09-19 04:25:00,
2013-09-19 00:30:00,62.8,59.5,29.82,SSE,158,0.0,0.0,89,0.00,CLR,CLR,0.00,WeatherDisplay:10.37,2013-09-19 04:30:00,
2013-09-19 00:35:00,62.8,59.5,29.81,SE,135,1.1,1.1,89,0.00,CLR,CLR,0.00,WeatherDisplay:10.37,2013-09-19 04:35:00,
2013-09-19 00:40:00,62.8,59.5,29.82,ESE,112,0.0,0.0,89,0.00,CLR,CLR,0.00,WeatherDisplay:10.37,2013-09-19 04:40:00,
2013-09-19 00:45:00,62.8,59.5,29.82,SE,135,0.0,0.0,89,0.00,CLR,CLR,0.00,WeatherDisplay:10.37,2013-09-19 04:45:00,
2013-09-19 00:50:00,62.8,59.5,29.81,SE,135,0.0,0.0,89,0.00,CLR,CLR,0.00,WeatherDisplay:10.37,2013-09-19 04:50:00,
2013-09-19 00:55:00,62.8,59.5,29.81,ESE,112,0.0,0.0,89,0.00,CLR,CLR,0.00,WeatherDisplay:10.37,2013-09-19 04:55:00,
2013-09-19 01:00:00,62.8,59.5,29.81,ESE,112,0.0,0.0,89,0.00,CLR,CLR,0.00,WeatherDisplay:10.37,2013-09-19 05:00:00,
2013-09-19 01:05:00,62.6,59.3,29.80,SE,135,0.0,0.0,89,0.00,CLR,CLR,0.00,WeatherDisplay:10.37,2013-09-19 05:05:00,
2013-09-19 01:10:00,62.6,59.3,29.81,SE,135,0.0,0.0,89,0.00,CLR,CLR,0.00,WeatherDisplay:10.37,2013-09-19 05:10:00,
2013-09-19 01:15:00,62.6,59.3,29.80,SSE,158,1.1,1.1,89,0.00,CLR,CLR,0.00,WeatherDisplay:10.37,2013-09-19 05:15:00,
2013-09-19 01:20:00,62.6,59.3,29.80,ESE,112,0.0,0.0,89,0.00,CLR,CLR,0.00,WeatherDisplay:10.37,2013-09-19 05:20:00,
2013-09-19 01:25:00,62.8,59.5,29.80,SE,135,0.0,0.0,89,0.00,CLR,CLR,0.00,WeatherDisplay:10.37,2013-09-19 05:25:00,
2013-09-19 01:31:00,63.0,59.7,29.80,SE,135,2.3,2.3,89,0.00,CLR,CLR,0.00,WeatherDisplay:10.37,2013-09-19 05:31:00,
2013-09-19 01:36:00,63.1,59.8,29.80,SSW,202,0.7,0.0,89,0.00,CLR,CLR,0.00,WeatherDisplay:10.37,2013-09-19 05:36:00,
2013-09-19 01:41:00,63.3,60.0,29.80,South,180,0.0,0.7,89,0.00,CLR,CLR,0.00,WeatherDisplay:10.37,2013-09-19 05:41:00,
2013-09-19 01:46:00,63.7,60.4,29.79,SSW,202,2.3,2.3,89,0.00,CLR,CLR,0.00,WeatherDisplay:10.37,2013-09-19 05:46:00,
2013-09-19 01:51:00,64.0,60.7,29.79,ENE,68,1.1,0.0,89,0.00,CLR,CLR,0.00,WeatherDisplay:10.37,2013-09-19 05:51:00,
2013-09-19 01:56:00,64.0,60.7,29.79,ESE,112,2.5,2.5,89,0.00,CLR,CLR,0.00,WeatherDisplay:10.37,2013-09-19 05:56:00,
2013-09-19 02:02:00,64.2,60.9,29.79,ENE,68,0.0,0.0,89,0.00,CLR,CLR,0.00,WeatherDisplay:10.37,2013-09-19 06:02:00,
2013-09-19 02:07:00,64.2,60.9,29.79,SSE,158,0.9,0.9,89,0.00,CLR,CLR,0.00,WeatherDisplay:10.37,2013-09-19 06:07:00,
2013-09-19 02:12:00,64.2,60.9,29.79,SE,135,0.0,0.0,89,0.00,CLR,CLR,0.00,WeatherDisplay:10.37,2013-09-19 06:12:00,
2013-09-19 02:17:00,64.6,61.3,29.78,ESE,112,2.3,2.3,89,0.00,CLR,CLR,0.00,WeatherDisplay:10.37,2013-09-19 06:17:00,
2013-09-19 02:22:00,64.6,60.9,29.79,SSE,158,0.0,0.0,88,0.00,CLR,CLR,0.00,WeatherDisplay:10.37,2013-09-19 06:22:00,
2013-09-19 02:27:00,64.8,61.1,29.78,SE,135,2.3,2.3,88,0.00,CLR,CLR,0.00,WeatherDisplay:10.37,2013-09-19 06:27:00,
2013-09-19 02:32:00,64.8,61.1,29.78,SE,135,0.0,0.0,88,0.00,CLR,CLR,0.00,WeatherDisplay:10.37,2013-09-19 06:32:00,
2013-09-19 02:37:00,64.9,61.3,29.78,North,0,0.0,0.0,88,0.00,CLR,CLR,0.00,WeatherDisplay:10.37,2013-09-19 06:37:00,
2013-09-19 02:42:00,64.9,61.3,29.78,SE,135,1.1,1.1,88,0.00,CLR,CLR,0.00,WeatherDisplay:10.37,2013-09-19 06:42:00,
2013-09-19 02:47:00,65.1,61.5,29.78,ESE,112,1.6,1.6,88,0.00,CLR,CLR,0.00,WeatherDisplay:10.37,2013-09-19 06:47:00,
2013-09-19 02:52:00,65.1,61.2,29.78,ESE,112,0.0,0.0,87,0.00,CLR,CLR,0.00,WeatherDisplay:10.37,2013-09-19 06:52:00,
2013-09-19 02:57:00,65.1,61.2,29.78,SE,135,2.7,2.7,87,0.00,CLR,CLR,0.00,WeatherDisplay:10.37,2013-09-19 06:57:00,
2013-09-19 03:02:00,65.1,61.2,29.78,ENE,68,0.0,0.0,87,0.00,CLR,CLR,0.00,WeatherDisplay:10.37,2013-09-19 07:02:00,
2013-09-19 03:07:00,65.1,61.2,29.78,SW,225,1.1,1.1,87,0.00,CLR,CLR,0.00,WeatherDisplay:10.37,2013-09-19 07:07:00,
2013-09-19 03:12:00,65.1,61.2,29.77,SSE,158,0.7,0.0,87,0.00,CLR,CLR,0.00,WeatherDisplay:10.37,2013-09-19 07:12:00,
2013-09-19 03:17:00,65.1,61.2,29.78,SSE,158,0.0,0.0,87,0.00,CLR,CLR,0.00,WeatherDisplay:10.37,2013-09-19 07:17:00,
2013-09-19 03:22:00,65.1,61.2,29.78,NNW,338,0.0,0.0,87,0.00,CLR,CLR,0.00,WeatherDisplay:10.37,2013-09-19 07:22:00,
2013-09-19 03:27:00,65.1,61.2,29.77,NW,315,0.0,0.0,87,0.00,CLR,CLR,0.00,WeatherDisplay:10.37,2013-09-19 07:27:00,
2013-09-19 03:32:00,65.1,61.2,29.77,NW,315,0.0,0.0,87,0.00,CLR,CLR,0.00,WeatherDisplay:10.37,2013-09-19 07:32:00,
2013-09-19 03:37:00,65.1,61.2,29.77,NNW,338,0.0,0.0,87,0.00,CLR,CLR,0.00,WeatherDisplay:10.37,2013-09-19 07:37:00,
2013-09-19 03:42:00,65.1,61.2,29.77,North,0,0.0,0.0,87,0.00,CLR,CLR,0.00,WeatherDisplay:10.37,2013-09-19 07:42:00,
2013-09-19 03:47:00,65.3,61.3,29.77,NW,315,0.0,0.0,87,0.00,CLR,CLR,0.00,WeatherDisplay:10.37,2013-09-19 07:47:00,
2013-09-19 03:52:00,65.1,61.2,29.77,NNW,338,0.0,0.0,87,0.00,CLR,CLR,0.00,WeatherDisplay:10.37,2013-09-19 07:52:00,
2013-09-19 03:57:00,65.1,61.2,29.77,NW,315,0.0,0.0,87,0.00,CLR,CLR,0.00,WeatherDisplay:10.37,2013-09-19 07:57:00,
2013-09-19 04:02:00,65.1,61.2,29.77,WNW,292,0.0,0.0,87,0.00,CLR,CLR,0.00,WeatherDisplay:10.37,2013-09-19 08:02:00,
2013-09-19 04:07:00,65.1,61.2,29.77,NW,315,0.0,0.0,87,0.00,CLR,CLR,0.00,WeatherDisplay:10.37,2013-09-19 08:07:00,
2013-09-19 04:12:00,65.1,61.2,29.77,NNW,338,0.0,0.0,87,0.00,CLR,CLR,0.00,WeatherDisplay:10.37,2013-09-19 08:12:00,
2013-09-19 04:17:00,65.1,61.2,29.77,NW,315,0.0,0.0,87,0.00,CLR,CLR,0.00,WeatherDisplay:10.37,2013-09-19 08:17:00,
2013-09-19 04:22:00,64.9,61.0,29.77,WNW,292,0.0,0.0,87,0.00,CLR,CLR,0.00,WeatherDisplay:10.37,2013-09-19 08:22:00,
2013-09-19 04:27:00,64.9,61.0,29.78,WNW,292,0.0,0.0,87,0.00,CLR,CLR,0.00,WeatherDisplay:10.37,2013-09-19 08:27:00,
2013-09-19 04:32:00,64.8,60.8,29.77,NW,315,0.0,0.0,87,0.00,CLR,CLR,0.00,WeatherDisplay:10.37,2013-09-19 08:32:00,
2013-09-19 04:37:00,64.6,60.6,29.77,NW,315,0.0,0.0,87,0.00,CLR,CLR,0.00,WeatherDisplay:10.37,2013-09-19 08:37:00,
2013-09-19 04:42:00,64.2,60.3,29.77,SSE,158,0.0,0.0,87,0.00,CLR,CLR,0.00,WeatherDisplay:10.37,2013-09-19 08:42:00,
2013-09-19 04:47:00,64.0,60.1,29.77,SSE,158,0.0,0.0,87,0.00,CLR,CLR,0.00,WeatherDisplay:10.37,2013-09-19 08:47:00,
2013-09-19 04:52:00,63.7,59.7,29.78,SSE,158,0.0,0.0,87,0.00,CLR,CLR,0.00,WeatherDisplay:10.37,2013-09-19 08:52:00,
2013-09-19 04:57:00,63.5,59.6,29.78,SSE,158,0.0,0.0,87,0.00,CLR,CLR,0.00,WeatherDisplay:10.37,2013-09-19 08:57:00,
2013-09-19 05:03:00,63.5,59.6,29.77,SSE,158,0.0,0.0,87,0.00,CLR,CLR,0.00,WeatherDisplay:10.37,2013-09-19 09:03:00,
2013-09-19 05:08:00,63.1,59.2,29.77,SSE,158,0.0,0.0,87,0.00,CLR,CLR,0.00,WeatherDisplay:10.37,2013-09-19 09:08:00,
2013-09-19 05:13:00,63.0,59.3,29.77,SSE,158,0.0,0.0,88,0.00,CLR,CLR,0.00,WeatherDisplay:10.37,2013-09-19 09:13:00,
2013-09-19 05:19:00,62.8,59.2,29.77,SSW,202,0.0,0.0,88,0.00,CLR,CLR,0.00,WeatherDisplay:10.37,2013-09-19 09:19:00,
2013-09-19 05:24:00,62.8,59.2,29.77,SW,225,0.0,0.0,88,0.00,CLR,CLR,0.00,WeatherDisplay:10.37,2013-09-19 09:24:00,
2013-09-19 05:29:00,62.6,59.0,29.77,South,180,0.0,0.0,88,0.00,CLR,CLR,0.00,WeatherDisplay:10.37,2013-09-19 09:29:00,
2013-09-19 05:34:00,62.4,58.8,29.77,SE,135,0.0,0.0,88,0.00,CLR,CLR,0.00,WeatherDisplay:10.37,2013-09-19 09:34:00,
2013-09-19 05:39:00,62.4,59.1,29.77,West,270,0.0,0.0,89,0.00,CLR,CLR,0.00,WeatherDisplay:10.37,2013-09-19 09:39:00,
2013-09-19 05:44:00,62.4,58.8,29.77,West,270,0.0,0.0,88,0.00,CLR,CLR,0.00,WeatherDisplay:10.37,2013-09-19 09:44:00,
2013-09-19 05:49:00,62.4,58.8,29.76,SSE,158,0.0,0.0,88,0.00,CLR,CLR,0.00,WeatherDisplay:10.37,2013-09-19 09:49:00,
2013-09-19 05:54:00,62.4,58.8,29.76,SE,135,0.0,0.0,88,0.00,CLR,CLR,0.00,WeatherDisplay:10.37,2013-09-19 09:54:00,
2013-09-19 05:59:00,62.2,58.6,29.76,SSW,202,0.0,0.0,88,0.00,CLR,CLR,0.00,WeatherDisplay:10.37,2013-09-19 09:59:00,
2013-09-19 06:04:00,62.2,59.0,29.75,SSE,158,0.0,0.0,89,0.00,CLR,CLR,0.00,WeatherDisplay:10.37,2013-09-19 10:04:00,
2013-09-19 06:09:00,62.2,59.0,29.76,SSE,158,0.0,0.0,89,0.00,CLR,CLR,0.00,WeatherDisplay:10.37,2013-09-19 10:09:00,
2013-09-19 06:14:00,62.2,59.0,29.75,SSE,158,0.0,0.0,89,0.00,CLR,CLR,0.00,WeatherDisplay:10.37,2013-09-19 10:14:00,
2013-09-19 06:19:00,62.2,59.0,29.75,SSE,158,0.0,0.0,89,0.00,CLR,CLR,0.00,WeatherDisplay:10.37,2013-09-19 10:19:00,
2013-09-19 06:24:00,62.2,59.0,29.75,SSE,158,0.0,0.0,89,0.00,CLR,CLR,0.00,WeatherDisplay:10.37,2013-09-19 10:24:00,
2013-09-19 06:30:00,62.2,59.0,29.75,SE,135,0.0,0.0,89,0.00,CLR,CLR,0.00,WeatherDisplay:10.37,2013-09-19 10:30:00,
2013-09-19 06:35:00,62.2,59.0,29.75,SSE,158,0.0,0.0,89,0.00,CLR,CLR,0.00,WeatherDisplay:10.37,2013-09-19 10:35:00,
2013-09-19 06:40:00,62.2,59.0,29.76,SSE,158,0.0,0.0,89,0.00,CLR,CLR,0.00,WeatherDisplay:10.37,2013-09-19 10:40:00,
2013-09-19 06:45:00,62.4,59.1,29.75,SSE,158,0.0,0.0,89,0.00,CLR,CLR,0.00,WeatherDisplay:10.37,2013-09-19 10:45:00,
2013-09-19 06:50:00,62.4,59.4,29.75,SSE,158,0.0,0.0,90,0.00,CLR,CLR,0.00,WeatherDisplay:10.37,2013-09-19 10:50:00,
2013-09-19 06:55:00,62.4,59.4,29.76,SSE,158,0.0,0.0,90,0.00,CLR,CLR,0.00,WeatherDisplay:10.37,2013-09-19 10:55:00,
2013-09-19 07:00:00,62.4,59.4,29.76,SE,135,0.0,0.0,90,0.00,CLR,CLR,0.00,WeatherDisplay:10.37,2013-09-19 11:00:00,
2013-09-19 07:05:00,62.6,59.6,29.75,SE,135,0.0,0.0,90,0.00,CLR,CLR,0.00,WeatherDisplay:10.37,2013-09-19 11:05:00,
2013-09-19 07:10:00,62.8,59.8,29.76,SE,135,0.0,0.0,90,0.00,CLR,CLR,0.00,WeatherDisplay:10.37,2013-09-19 11:10:00,
2013-09-19 07:15:00,63.0,60.0,29.76,ENE,68,0.0,0.0,90,0.00,CLR,CLR,0.00,WeatherDisplay:10.37,2013-09-19 11:15:00,
2013-09-19 07:20:00,63.0,60.0,29.76,ENE,68,0.0,0.0,90,0.00,CLR,CLR,0.00,WeatherDisplay:10.37,2013-09-19 11:20:00,
2013-09-19 07:26:00,63.0,60.0,29.76,East,90,0.0,0.0,90,0.00,CLR,CLR,0.00,WeatherDisplay:10.37,2013-09-19 11:26:00,
2013-09-19 07:31:00,63.0,60.0,29.76,ESE,112,0.0,0.0,90,0.00,CLR,CLR,0.00,WeatherDisplay:10.37,2013-09-19 11:31:00,
2013-09-19 07:36:00,63.0,60.0,29.76,ESE,112,0.0,0.0,90,0.00,CLR,CLR,0.00,WeatherDisplay:10.37,2013-09-19 11:36:00,
2013-09-19 07:41:00,63.0,60.0,29.76,ESE,112,0.0,0.0,90,0.00,CLR,CLR,0.00,WeatherDisplay:10.37,2013-09-19 11:41:00,
2013-09-19 07:46:00,63.0,60.0,29.76,ESE,112,0.0,0.0,90,0.00,CLR,CLR,0.00,WeatherDisplay:10.37,2013-09-19 11:46:00,
2013-09-19 07:52:00,63.0,60.0,29.77,East,90,0.0,0.0,90,0.00,CLR,CLR,0.00,WeatherDisplay:10.37,2013-09-19 11:52:00,
2013-09-19 07:57:00,63.1,60.2,29.77,East,90,0.0,0.0,90,0.00,CLR,CLR,0.00,WeatherDisplay:10.37,2013-09-19 11:57:00,
2013-09-19 08:02:00,63.1,60.2,29.77,East,90,0.0,0.0,90,0.00,CLR,CLR,0.00,WeatherDisplay:10.37,2013-09-19 12:02:00,
2013-09-19 08:07:00,63.1,60.2,29.77,SE,135,0.0,0.0,90,0.00,CLR,CLR,0.00,WeatherDisplay:10.37,2013-09-19 12:07:00,
2013-09-19 08:12:00,63.3,60.3,29.77,SE,135,0.0,0.0,90,0.00,CLR,CLR,0.00,WeatherDisplay:10.37,2013-09-19 12:12:00,
2013-09-19 08:17:00,63.3,60.3,29.76,NNE,22,0.0,0.0,90,0.00,CLR,CLR,0.00,WeatherDisplay:10.37,2013-09-19 12:17:00,
2013-09-19 08:22:00,63.3,60.3,29.76,ESE,112,0.0,0.0,90,0.00,CLR,CLR,0.00,WeatherDisplay:10.37,2013-09-19 12:22:00,
2013-09-19 08:27:00,63.5,60.8,29.77,NNE,22,0.0,0.0,91,0.00,CLR,CLR,0.00,WeatherDisplay:10.37,2013-09-19 12:27:00,
2013-09-19 08:33:00,63.7,60.7,29.77,North,0,0.0,0.0,90,0.00,CLR,CLR,0.00,WeatherDisplay:10.37,2013-09-19 12:33:00,
2013-09-19 08:38:00,63.7,61.0,29.77,North,0,0.0,0.0,91,0.00,CLR,CLR,0.00,WeatherDisplay:10.37,2013-09-19 12:38:00,
2013-09-19 08:43:00,64.0,61.4,29.77,SSE,158,2.3,2.3,91,0.00,CLR,CLR,0.00,WeatherDisplay:10.37,2013-09-19 12:43:00,
2013-09-19 08:48:00,64.0,61.4,29.76,West,270,3.5,3.5,91,0.00,CLR,CLR,0.00,WeatherDisplay:10.37,2013-09-19 12:48:00,
2013-09-19 08:53:00,64.2,61.5,29.76,ESE,112,0.9,0.9,91,0.00,CLR,CLR,0.00,WeatherDisplay:10.37,2013-09-19 12:53:00,
2013-09-19 08:58:00,64.6,61.6,29.76,North,0,2.3,2.3,90,0.00,CLR,CLR,0.00,WeatherDisplay:10.37,2013-09-19 12:58:00,
2013-09-19 09:03:00,65.1,62.1,29.76,SE,135,1.1,1.1,90,0.00,CLR,CLR,0.00,WeatherDisplay:10.37,2013-09-19 13:03:00,
2013-09-19 09:08:00,65.7,62.6,29.75,NE,45,0.0,0.0,90,0.00,CLR,CLR,0.00,WeatherDisplay:10.37,2013-09-19 13:08:00,
2013-09-19 09:13:00,65.8,62.8,29.75,NNE,22,0.0,0.0,90,0.00,CLR,CLR,0.00,WeatherDisplay:10.37,2013-09-19 13:13:00,
2013-09-19 09:18:00,66.0,63.0,29.75,ESE,112,0.0,0.0,90,0.00,CLR,CLR,0.00,WeatherDisplay:10.37,2013-09-19 13:18:00,
2013-09-19 09:23:00,66.4,63.0,29.75,NW,315,0.0,0.0,89,0.00,CLR,CLR,0.00,WeatherDisplay:10.37,2013-09-19 13:23:00,
2013-09-19 09:28:00,66.7,63.4,29.75,NW,315,0.0,0.0,89,0.00,CLR,CLR,0.00,WeatherDisplay:10.37,2013-09-19 13:28:00,
2013-09-19 09:33:00,66.7,63.4,29.75,NNW,338,0.0,0.0,89,0.00,CLR,CLR,0.00,WeatherDisplay:10.37,2013-09-19 13:33:00,
2013-09-19 09:38:00,66.9,63.2,29.75,NNW,338,1.1,1.1,88,0.00,CLR,CLR,0.00,WeatherDisplay:10.37,2013-09-19 13:38:00,
2013-09-19 09:43:00,66.9,63.2,29.76,NNE,22,0.0,0.0,88,0.00,CLR,CLR,0.00,WeatherDisplay:10.37,2013-09-19 13:43:00,
2013-09-19 09:48:00,67.1,63.4,29.76,North,0,0.0,0.0,88,0.00,CLR,CLR,0.00,WeatherDisplay:10.37,2013-09-19 13:48:00,
2013-09-19 09:53:00,67.5,63.8,29.76,ESE,112,2.9,2.9,88,0.00,CLR,CLR,0.00,WeatherDisplay:10.37,2013-09-19 13:53:00,
2013-09-19 09:58:00,67.6,63.6,29.75,North,0,0.0,0.0,87,0.00,CLR,CLR,0.00,WeatherDisplay:10.37,2013-09-19 13:58:00,
2013-09-19 10:03:00,67.8,63.8,29.75,ESE,112,3.8,3.8,87,0.00,CLR,CLR,0.00,WeatherDisplay:10.37,2013-09-19 14:03:00,
2013-09-19 10:08:00,68.4,64.0,29.76,North,0,0.0,0.0,86,0.00,CLR,CLR,0.00,WeatherDisplay:10.37,2013-09-19 14:08:00,
2013-09-19 10:13:00,68.5,64.2,29.75,North,0,0.0,0.0,86,0.00,CLR,CLR,0.00,WeatherDisplay:10.37,2013-09-19 14:13:00,
2013-09-19 10:18:00,68.9,64.5,29.75,NNW,338,0.0,0.0,86,0.00,CLR,CLR,0.00,WeatherDisplay:10.37,2013-09-19 14:18:00,
2013-09-19 10:23:00,69.3,64.6,29.75,SSW,202,1.1,1.1,85,0.00,CLR,CLR,0.00,WeatherDisplay:10.37,2013-09-19 14:23:00,
2013-09-19 10:28:00,69.6,64.6,29.75,WNW,292,1.1,1.1,84,0.00,CLR,CLR,0.00,WeatherDisplay:10.37,2013-09-19 14:28:00,
2013-09-19 10:33:00,70.2,65.1,29.76,SE,135,3.8,3.8,84,0.00,CLR,CLR,0.00,WeatherDisplay:10.37,2013-09-19 14:33:00,
2013-09-19 10:38:00,70.3,64.9,29.75,SW,225,1.1,1.1,83,0.00,CLR,CLR,0.00,WeatherDisplay:10.37,2013-09-19 14:38:00,
2013-09-19 10:43:00,70.7,65.3,29.75,East,90,3.5,3.5,83,0.00,CLR,CLR,0.00,WeatherDisplay:10.37,2013-09-19 14:43:00,
2013-09-19 10:48:00,71.2,65.5,29.75,SE,135,4.6,4.6,82,0.00,CLR,CLR,0.00,WeatherDisplay:10.37,2013-09-19 14:48:00,
2013-09-19 10:53:00,71.4,65.3,29.75,ENE,68,0.0,0.0,81,0.00,CLR,CLR,0.00,WeatherDisplay:10.37,2013-09-19 14:53:00,
2013-09-19 10:58:00,72.1,65.6,29.75,ESE,112,1.1,1.1,80,0.00,CLR,CLR,0.00,WeatherDisplay:10.37,2013-09-19 14:58:00,
2013-09-19 11:03:00,72.5,66.0,29.74,ESE,112,5.1,0.0,80,0.00,CLR,CLR,0.00,WeatherDisplay:10.37,2013-09-19 15:03:00,
2013-09-19 11:08:00,72.9,66.0,29.74,SSE,158,2.2,0.0,79,0.00,CLR,CLR,0.00,WeatherDisplay:10.37,2013-09-19 15:08:00,
2013-09-19 11:13:00,73.2,66.3,29.74,ESE,112,0.0,0.0,79,0.00,CLR,CLR,0.00,WeatherDisplay:10.37,2013-09-19 15:13:00,
2013-09-19 11:18:00,73.8,66.5,29.73,SE,135,0.0,0.0,78,0.00,CLR,CLR,0.00,WeatherDisplay:10.37,2013-09-19 15:18:00,
2013-09-19 11:23:00,74.5,66.8,29.73,SSE,158,1.3,1.3,77,0.00,CLR,CLR,0.00,WeatherDisplay:10.37,2013-09-19 15:23:00,
2013-09-19 11:28:00,74.8,66.8,29.73,SSE,158,3.5,3.5,76,0.00,CLR,CLR,0.00,WeatherDisplay:10.37,2013-09-19 15:28:00,
2013-09-19 11:33:00,75.0,66.6,29.72,SSE,158,0.0,0.0,75,0.00,CLR,CLR,0.00,WeatherDisplay:10.37,2013-09-19 15:33:00,
2013-09-19 11:38:00,75.6,67.1,29.72,SSE,158,0.0,0.0,75,0.00,CLR,CLR,0.00,WeatherDisplay:10.37,2013-09-19 15:38:00,
2013-09-19 11:43:00,75.9,67.4,29.72,SSE,158,1.3,1.3,75,0.00,CLR,CLR,0.00,WeatherDisplay:10.37,2013-09-19 15:43:00,
2013-09-19 11:48:00,76.3,67.4,29.72,SSE,158,2.3,2.3,74,0.00,CLR,CLR,0.00,WeatherDisplay:10.37,2013-09-19 15:48:00,
2013-09-19 11:53:00,76.6,67.3,29.72,South,180,3.5,3.5,73,0.00,CLR,CLR,0.00,WeatherDisplay:10.37,2013-09-19 15:53:00,
2013-09-19 11:58:00,76.8,67.5,29.72,ESE,112,2.5,2.5,73,0.00,CLR,CLR,0.00,WeatherDisplay:10.37,2013-09-19 15:58:00,
2013-09-19 12:03:00,77.2,67.9,29.72,SSE,158,3.5,3.5,73,0.00,CLR,CLR,0.00,WeatherDisplay:10.37,2013-09-19 16:03:00,
2013-09-19 12:08:00,77.2,67.5,29.72,South,180,0.0,0.0,72,0.00,CLR,CLR,0.00,WeatherDisplay:10.37,2013-09-19 16:08:00,
2013-09-19 12:13:00,77.2,67.5,29.73,South,180,0.0,0.0,72,0.00,CLR,CLR,0.00,WeatherDisplay:10.37,2013-09-19 16:13:00,
2013-09-19 12:18:00,77.0,66.9,29.72,North,0,2.3,2.3,71,0.00,CLR,CLR,0.00,WeatherDisplay:10.37,2013-09-19 16:18:00,
2013-09-19 12:23:00,76.6,66.5,29.72,SSE,158,1.1,2.6,71,0.00,CLR,CLR,0.00,WeatherDisplay:10.37,2013-09-19 16:23:00,
2013-09-19 12:28:00,75.9,66.2,29.72,SE,135,6.9,6.9,72,0.00,CLR,CLR,0.00,WeatherDisplay:10.37,2013-09-19 16:28:00,
2013-09-19 12:33:00,75.0,65.4,29.72,SE,135,8.1,8.1,72,0.00,CLR,CLR,0.00,WeatherDisplay:10.37,2013-09-19 16:33:00,
2013-09-19 12:38:00,74.8,66.0,29.72,West,270,2.5,2.5,74,0.00,CLR,CLR,0.00,WeatherDisplay:10.37,2013-09-19 16:38:00,
2013-09-19 12:43:00,74.5,66.0,29.72,ESE,112,3.5,3.5,75,0.00,CLR,CLR,0.00,WeatherDisplay:10.37,2013-09-19 16:43:00,
2013-09-19 12:48:00,74.7,66.2,29.72,East,90,3.8,3.8,75,0.00,CLR,CLR,0.00,WeatherDisplay:10.37,2013-09-19 16:48:00,
2013-09-19 12:54:00,75.0,66.2,29.72,SE,135,3.6,3.6,74,0.00,CLR,CLR,0.00,WeatherDisplay:10.37,2013-09-19 16:54:00,
2013-09-19 12:59:00,75.0,66.2,29.71,SSW,202,2.3,2.3,74,0.00,CLR,CLR,0.00,WeatherDisplay:10.37,2013-09-19 16:59:00,
2013-09-19 13:04:00,75.6,67.1,29.72,NW,315,1.3,1.3,75,0.00,CLR,CLR,0.00,WeatherDisplay:10.37,2013-09-19 17:04:00,
2013-09-19 13:09:00,76.1,67.2,29.72,SSE,158,4.2,4.2,74,0.00,CLR,CLR,0.00,WeatherDisplay:10.37,2013-09-19 17:09:00,
2013-09-19 13:14:00,76.6,67.3,29.71,SSW,202,2.3,2.3,73,0.00,CLR,CLR,0.00,WeatherDisplay:10.37,2013-09-19 17:14:00,
2013-09-19 13:19:00,76.8,67.5,29.72,SE,135,3.5,3.5,73,0.00,CLR,CLR,0.00,WeatherDisplay:10.37,2013-09-19 17:19:00,
2013-09-19 13:24:00,76.8,67.5,29.72,East,90,8.3,8.3,73,0.00,CLR,CLR,0.00,WeatherDisplay:10.37,2013-09-19 17:24:00,
2013-09-19 13:30:00,76.8,67.5,29.71,SSW,202,0.0,1.0,73,0.00,CLR,CLR,0.00,WeatherDisplay:10.37,2013-09-19 17:30:00,
2013-09-19 13:35:00,76.8,67.5,29.71,ESE,112,0.0,0.0,73,0.00,CLR,CLR,0.00,WeatherDisplay:10.37,2013-09-19 17:35:00,
2013-09-19 13:40:00,77.0,67.3,29.71,NNW,338,2.9,2.9,72,0.00,CLR,CLR,0.00,WeatherDisplay:10.37,2013-09-19 17:40:00,
2013-09-19 13:45:00,76.8,67.1,29.71,SE,135,1.1,1.1,72,0.00,CLR,CLR,0.00,WeatherDisplay:10.37,2013-09-19 17:45:00,
2013-09-19 13:50:00,76.8,67.1,29.71,ESE,112,3.8,3.8,72,0.00,CLR,CLR,0.00,WeatherDisplay:10.37,2013-09-19 17:50:00,
2013-09-19 13:55:00,77.2,67.5,29.71,SW,225,2.3,2.3,72,0.00,CLR,CLR,0.00,WeatherDisplay:10.37,2013-09-19 17:55:00,
2013-09-19 14:00:00,77.2,67.5,29.71,West,270,2.3,2.3,72,0.00,CLR,CLR,0.00,WeatherDisplay:10.37,2013-09-19 18:00:00,
2013-09-19 14:05:00,77.5,67.8,29.72,SW,225,0.0,0.0,72,0.00,CLR,CLR,0.00,WeatherDisplay:10.37,2013-09-19 18:05:00,
2013-09-19 14:10:00,76.8,67.1,29.72,NW,315,34.5,34.5,72,0.00,CLR,CLR,0.00,WeatherDisplay:10.37,2013-09-19 18:10:00,
2013-09-19 14:15:00,76.6,66.9,29.72,SE,135,6.0,6.0,72,0.00,CLR,CLR,0.00,WeatherDisplay:10.37,2013-09-19 18:15:00,
2013-09-19 14:20:00,75.7,66.1,29.72,SE,135,6.3,6.3,72,0.00,CLR,CLR,0.00,WeatherDisplay:10.37,2013-09-19 18:20:00,
2013-09-19 14:25:00,75.2,65.9,29.71,West,270,0.0,0.0,73,0.00,CLR,CLR,0.00,WeatherDisplay:10.37,2013-09-19 18:25:00,
2013-09-19 14:30:00,74.8,66.0,29.71,South,180,1.1,1.1,74,0.00,CLR,CLR,0.00,WeatherDisplay:10.37,2013-09-19 18:30:00,
2013-09-19 14:35:00,74.5,66.0,29.71,South,180,2.3,2.3,75,0.00,CLR,CLR,0.00,WeatherDisplay:10.37,2013-09-19 18:35:00,
2013-09-19 14:40:00,74.5,66.0,29.70,SE,135,3.5,3.5,75,0.00,CLR,CLR,0.00,WeatherDisplay:10.37,2013-09-19 18:40:00,
2013-09-19 14:45:00,74.5,66.0,29.70,NNE,22,3.5,3.5,75,0.00,CLR,CLR,0.00,WeatherDisplay:10.37,2013-09-19 18:45:00,
2013-09-19 14:50:00,74.7,66.2,29.70,SSE,158,2.3,2.3,75,0.00,CLR,CLR,0.00,WeatherDisplay:10.37,2013-09-19 18:50:00,
2013-09-19 14:55:00,75.2,66.7,29.69,ESE,112,0.0,0.0,75,0.00,CLR,CLR,0.00,WeatherDisplay:10.37,2013-09-19 18:55:00,
2013-09-19 15:00:00,75.7,66.9,29.69,SE,135,2.5,2.5,74,0.00,CLR,CLR,0.00,WeatherDisplay:10.37,2013-09-19 19:00:00,
2013-09-19 15:05:00,75.9,67.0,29.69,ESE,112,1.1,0.0,74,0.00,CLR,CLR,0.00,WeatherDisplay:10.37,2013-09-19 19:05:00,
2013-09-19 15:10:00,76.5,67.6,29.69,ESE,112,3.5,3.5,74,0.00,CLR,CLR,0.00,WeatherDisplay:10.37,2013-09-19 19:10:00,
2013-09-19 15:15:00,76.8,67.5,29.68,SE,135,1.3,1.3,73,0.00,CLR,CLR,0.00,WeatherDisplay:10.37,2013-09-19 19:15:00,
2013-09-19 15:20:00,77.2,67.9,29.67,SSW,202,1.3,1.3,73,0.00,CLR,CLR,0.00,WeatherDisplay:10.37,2013-09-19 19:20:00,
2013-09-19 15:25:00,77.4,67.6,29.67,SW,225,0.0,0.0,72,0.00,CLR,CLR,0.00,WeatherDisplay:10.37,2013-09-19 19:25:00,
2013-09-19 15:30:00,77.7,68.0,29.67,SE,135,3.6,3.6,72,0.00,CLR,CLR,0.00,WeatherDisplay:10.37,2013-09-19 19:30:00,
2013-09-19 15:35:00,77.7,68.0,29.65,SSW,202,1.1,1.1,72,0.00,CLR,CLR,0.00,WeatherDisplay:10.37,2013-09-19 19:35:00,
2013-09-19 15:40:00,77.9,67.7,29.65,SSE,158,0.0,0.0,71,0.00,CLR,CLR,0.00,WeatherDisplay:10.37,2013-09-19 19:40:00,
2013-09-19 15:45:00,77.5,67.4,29.65,ESE,112,2.7,2.7,71,0.00,CLR,CLR,0.00,WeatherDisplay:10.37,2013-09-19 19:45:00,
2013-09-19 15:50:00,77.5,67.8,29.66,WSW,248,0.0,0.0,72,0.00,CLR,CLR,0.00,WeatherDisplay:10.37,2013-09-19 19:50:00,
2013-09-19 15:55:00,77.5,67.8,29.66,North,0,0.0,0.0,72,0.00,CLR,CLR,0.00,WeatherDisplay:10.37,2013-09-19 19:55:00,
2013-09-19 16:00:00,77.2,67.5,29.65,SE,135,4.7,4.7,72,0.00,CLR,CLR,0.00,WeatherDisplay:10.37,2013-09-19 20:00:00,
2013-09-19 16:05:00,77.2,67.5,29.65,SSW,202,2.3,0.0,72,0.00,CLR,CLR,0.00,WeatherDisplay:10.37,2013-09-19 20:05:00,
2013-09-19 16:11:00,77.0,67.7,29.65,SE,135,1.1,0.0,73,0.00,CLR,CLR,0.00,WeatherDisplay:10.37,2013-09-19 20:11:00,
2013-09-19 16:16:00,77.2,67.9,29.65,SW,225,1.1,0.0,73,0.00,CLR,CLR,0.00,WeatherDisplay:10.37,2013-09-19 20:16:00,
2013-09-19 16:21:00,77.2,67.9,29.65,SSE,158,2.3,2.3,73,0.00,CLR,CLR,0.00,WeatherDisplay:10.37,2013-09-19 20:21:00,
2013-09-19 16:26:00,77.2,67.9,29.65,SW,225,2.3,2.3,73,0.00,CLR,CLR,0.00,WeatherDisplay:10.37,2013-09-19 20:26:00,
2013-09-19 16:31:00,77.2,67.9,29.65,SSE,158,4.0,4.0,73,0.00,CLR,CLR,0.00,WeatherDisplay:10.37,2013-09-19 20:31:00,
2013-09-19 16:36:00,77.2,67.9,29.64,SSE,158,2.5,2.5,73,0.00,CLR,CLR,0.00,WeatherDisplay:10.37,2013-09-19 20:36:00,
2013-09-19 16:41:00,77.2,67.9,29.64,SW,225,2.3,2.3,73,0.00,CLR,CLR,0.00,WeatherDisplay:10.37,2013-09-19 20:41:00,
2013-09-19 16:46:00,76.8,67.5,29.65,SE,135,3.5,3.5,73,0.00,CLR,CLR,0.00,WeatherDisplay:10.37,2013-09-19 20:46:00,
2013-09-19 16:51:00,76.6,67.3,29.65,SE,135,1.1,0.0,73,0.00,CLR,CLR,0.00,WeatherDisplay:10.37,2013-09-19 20:51:00,
2013-09-19 16:56:00,76.6,67.7,29.65,SE,135,1.1,1.1,74,0.00,CLR,CLR,0.00,WeatherDisplay:10.37,2013-09-19 20:56:00,
2013-09-19 17:01:00,76.6,67.7,29.65,NNW,338,3.5,3.5,74,0.00,CLR,CLR,0.00,WeatherDisplay:10.37,2013-09-19 21:01:00,
2013-09-19 17:06:00,76.6,68.1,29.65,NW,315,1.1,1.1,75,0.00,CLR,CLR,0.00,WeatherDisplay:10.37,2013-09-19 21:06:00,
2013-09-19 17:11:00,76.3,67.8,29.65,SSE,158,1.3,1.3,75,0.00,CLR,CLR,0.00,WeatherDisplay:10.37,2013-09-19 21:11:00,
2013-09-19 17:16:00,76.3,67.8,29.65,NNW,338,0.0,0.0,75,0.00,CLR,CLR,0.00,WeatherDisplay:10.37,2013-09-19 21:16:00,
2013-09-19 17:21:00,76.1,67.6,29.67,NE,45,0.0,0.0,75,0.00,CLR,CLR,0.00,WeatherDisplay:10.37,2013-09-19 21:21:00,
2013-09-19 17:26:00,75.9,67.8,29.67,SSE,158,0.0,0.0,76,0.00,CLR,CLR,0.00,WeatherDisplay:10.37,2013-09-19 21:26:00,
2013-09-19 17:31:00,75.7,67.6,29.66,SE,135,1.3,0.0,76,0.00,CLR,CLR,0.00,WeatherDisplay:10.37,2013-09-19 21:31:00,
2013-09-19 17:36:00,75.4,67.3,29.66,North,0,0.9,0.0,76,0.00,CLR,CLR,0.00,WeatherDisplay:10.37,2013-09-19 21:36:00,
2013-09-19 17:41:00,75.2,67.1,29.66,ESE,112,45.4,45.4,76,0.00,,,0.00,WeatherDisplay:10.37,2013-09-19 21:41:00,
2013-09-19 17:46:00,75.0,67.7,29.65,NNE,22,0.0,0.0,78,0.00,,,0.00,WeatherDisplay:10.37,2013-09-19 21:46:00,
2013-09-19 17:51:00,74.8,67.5,29.66,ESE,112,0.0,0.0,78,0.00,CLR,CLR,0.00,WeatherDisplay:10.37,2013-09-19 21:51:00,
2013-09-19 17:56:00,74.7,67.3,29.66,East,90,18.4,18.4,78,0.00,CLR,CLR,0.00,WeatherDisplay:10.37,2013-09-19 21:56:00,
2013-09-19 18:01:00,74.5,67.2,29.65,East,90,5.1,5.1,78,0.00,CLR,CLR,0.00,WeatherDisplay:10.37,2013-09-19 22:01:00,
2013-09-19 18:06:00,74.3,67.4,29.65,ESE,112,0.0,0.0,79,0.00,CLR,CLR,0.00,WeatherDisplay:10.37,2013-09-19 22:06:00,
2013-09-19 18:12:00,74.1,67.2,29.66,SE,135,1.6,1.6,79,0.00,CLR,CLR,0.00,WeatherDisplay:10.37,2013-09-19 22:12:00,
2013-09-19 18:17:00,74.1,67.2,29.66,SE,135,0.0,0.0,79,0.00,CLR,CLR,0.00,WeatherDisplay:10.37,2013-09-19 22:17:00,
2013-09-19 18:22:00,73.9,67.0,29.66,SE,135,1.1,1.1,79,0.00,CLR,CLR,0.00,WeatherDisplay:10.37,2013-09-19 22:22:00,
2013-09-19 18:27:00,73.9,67.4,29.65,South,180,1.6,1.6,80,0.00,CLR,CLR,0.00,WeatherDisplay:10.37,2013-09-19 22:27:00,
2013-09-19 18:32:00,73.8,67.2,29.65,SSW,202,1.1,0.0,80,0.00,CLR,CLR,0.00,WeatherDisplay:10.37,2013-09-19 22:32:00,
2013-09-19 18:37:00,73.6,67.0,29.66,NNE,22,0.0,0.0,80,0.00,CLR,CLR,0.00,WeatherDisplay:10.37,2013-09-19 22:37:00,
2013-09-19 18:42:00,73.6,67.0,29.66,SW,225,1.1,1.1,80,0.00,CLR,CLR,0.00,WeatherDisplay:10.37,2013-09-19 22:42:00,
2013-09-19 18:47:00,73.6,67.0,29.65,SE,135,4.6,4.6,80,0.00,CLR,CLR,0.00,WeatherDisplay:10.37,2013-09-19 22:47:00,
2013-09-19 18:52:00,73.6,67.0,29.65,South,180,2.3,2.3,80,0.00,CLR,CLR,0.00,WeatherDisplay:10.37,2013-09-19 22:52:00,
2013-09-19 18:57:00,73.6,67.0,29.66,WSW,248,2.3,2.3,80,0.00,CLR,CLR,0.00,WeatherDisplay:10.37,2013-09-19 22:57:00,
2013-09-19 19:02:00,73.6,67.0,29.65,SE,135,6.0,6.0,80,0.00,CLR,CLR,0.00,WeatherDisplay:10.37,2013-09-19 23:02:00,
2013-09-19 19:07:00,73.4,66.5,29.65,SE,135,3.5,3.5,79,0.00,CLR,CLR,0.00,WeatherDisplay:10.37,2013-09-19 23:07:00,
2013-09-19 19:12:00,73.2,66.3,29.65,SE,135,0.0,0.0,79,0.00,CLR,CLR,0.00,WeatherDisplay:10.37,2013-09-19 23:12:00,
2013-09-19 19:17:00,73.0,66.1,29.64,SE,135,2.3,2.3,79,0.00,CLR,CLR,0.00,WeatherDisplay:10.37,2013-09-19 23:17:00,
2013-09-19 19:22:00,72.3,65.8,29.63,ESE,112,50.9,50.9,80,0.00,CLR,CLR,0.00,WeatherDisplay:10.37,2013-09-19 23:22:00,
2013-09-19 19:27:00,72.0,65.5,29.60,North,0,1.1,1.1,80,0.00,,,0.00,WeatherDisplay:10.37,2013-09-19 23:27:00,
2013-09-19 19:32:00,71.2,65.1,29.60,SSW,202,0.0,0.0,81,0.00,,,0.00,WeatherDisplay:10.37,2013-09-19 23:32:00,
2013-09-19 19:37:00,70.7,64.9,29.62,SSW,202,0.0,0.0,82,0.10,RA,RA,0.10,WeatherDisplay:10.37,2013-09-19 23:37:00,
2013-09-19 19:42:00,70.5,65.1,29.62,ESE,112,0.0,0.0,83,0.10,RA,RA,0.10,WeatherDisplay:10.37,2013-09-19 23:42:00,
2013-09-19 19:47:00,70.2,64.8,29.62,SSE,158,1.1,1.1,83,0.10,,,0.10,WeatherDisplay:10.37,2013-09-19 23:47:00,
2013-09-19 19:53:00,69.8,64.7,29.64,SSW,202,1.1,1.1,84,0.10,CLR,CLR,0.10,WeatherDisplay:10.37,2013-09-19 23:53:00,
2013-09-19 19:58:00,69.4,64.4,29.64,SW,225,1.1,1.1,84,0.10,CLR,CLR,0.10,WeatherDisplay:10.37,2013-09-19 23:58:00,
2013-09-19 20:03:00,69.1,64.0,29.64,North,0,0.0,0.0,84,0.10,CLR,CLR,0.10,WeatherDisplay:10.37,2013-09-20 00:03:00,
2013-09-19 20:08:00,68.9,63.9,29.64,SE,135,1.1,1.1,84,0.10,CLR,CLR,0.10,WeatherDisplay:10.37,2013-09-20 00:08:00,
2013-09-19 20:13:00,68.7,64.0,29.64,South,180,0.0,0.0,85,0.10,CLR,CLR,0.10,WeatherDisplay:10.37,2013-09-20 00:13:00,
2013-09-19 20:18:00,68.5,63.8,29.64,South,180,0.0,0.0,85,0.10,CLR,CLR,0.10,WeatherDisplay:10.37,2013-09-20 00:18:00,
2013-09-19 20:23:00,68.4,63.7,29.64,SE,135,0.0,0.0,85,0.10,CLR,CLR,0.10,WeatherDisplay:10.37,2013-09-20 00:23:00,
2013-09-19 20:29:00,68.2,63.5,29.65,NNW,338,0.0,0.0,85,0.10,CLR,CLR,0.10,WeatherDisplay:10.37,2013-09-20 00:29:00,
2013-09-19 20:34:00,67.8,63.5,29.65,NNW,338,0.0,0.0,86,0.10,CLR,CLR,0.10,WeatherDisplay:10.37,2013-09-20 00:34:00,
2013-09-19 20:39:00,67.8,63.5,29.65,ENE,68,0.0,0.0,86,0.10,CLR,CLR,0.10,WeatherDisplay:10.37,2013-09-20 00:39:00,
2013-09-19 20:44:00,67.6,63.6,29.65,West,270,0.0,0.0,87,0.00,CLR,CLR,0.10,WeatherDisplay:10.37,2013-09-20 00:44:00,
2013-09-19 20:49:00,67.6,63.6,29.65,SSE,158,0.0,0.0,87,0.00,CLR,CLR,0.10,WeatherDisplay:10.37,2013-09-20 00:49:00,
2013-09-19 20:54:00,67.6,63.6,29.65,SE,135,1.3,1.3,87,0.00,CLR,CLR,0.10,WeatherDisplay:10.37,2013-09-20 00:54:00,
2013-09-19 20:59:00,67.3,63.3,29.65,SE,135,0.0,0.0,87,0.00,CLR,CLR,0.10,WeatherDisplay:10.37,2013-09-20 00:59:00,
2013-09-19 21:04:00,67.3,63.6,29.65,SE,135,0.0,0.0,88,0.00,CLR,CLR,0.10,WeatherDisplay:10.37,2013-09-20 01:04:00,
2013-09-19 21:09:00,67.5,63.8,29.64,SE,135,0.0,0.0,88,0.00,CLR,CLR,0.10,WeatherDisplay:10.37,2013-09-20 01:09:00,
2013-09-19 21:14:00,67.5,63.8,29.65,East,90,1.1,1.1,88,0.00,CLR,CLR,0.10,WeatherDisplay:10.37,2013-09-20 01:14:00,
2013-09-19 21:19:00,67.6,64.0,29.65,SE,135,0.7,0.7,88,0.00,CLR,CLR,0.10,WeatherDisplay:10.37,2013-09-20 01:19:00,
2013-09-19 21:24:00,67.6,64.0,29.65,SE,135,0.0,0.0,88,0.00,CLR,CLR,0.10,WeatherDisplay:10.37,2013-09-20 01:24:00,
2013-09-19 21:29:00,67.8,64.1,29.64,SSE,158,1.6,1.9,88,0.00,CLR,CLR,0.10,WeatherDisplay:10.37,2013-09-20 01:29:00,
2013-09-19 21:34:00,67.8,64.5,29.65,SE,135,1.1,1.1,89,0.00,CLR,CLR,0.10,WeatherDisplay:10.37,2013-09-20 01:34:00,
2013-09-19 21:39:00,68.2,64.8,29.64,SE,135,0.0,0.0,89,0.00,CLR,CLR,0.10,WeatherDisplay:10.37,2013-09-20 01:39:00,
2013-09-19 21:44:00,68.2,64.8,29.64,SE,135,0.0,0.0,89,0.00,CLR,CLR,0.10,WeatherDisplay:10.37,2013-09-20 01:44:00,
2013-09-19 21:49:00,68.2,64.8,29.64,SSE,158,1.6,1.6,89,0.00,CLR,CLR,0.10,WeatherDisplay:10.37,2013-09-20 01:49:00,
2013-09-19 21:54:00,68.4,65.0,29.63,SSE,158,1.1,1.1,89,0.00,CLR,CLR,0.10,WeatherDisplay:10.37,2013-09-20 01:54:00,
2013-09-19 22:00:00,68.4,65.0,29.63,ESE,112,1.6,1.6,89,0.00,CLR,CLR,0.10,WeatherDisplay:10.37,2013-09-20 02:00:00,
2013-09-19 22:05:00,68.5,65.2,29.62,South,180,1.1,0.0,89,0.00,CLR,CLR,0.10,WeatherDisplay:10.37,2013-09-20 02:05:00,
2013-09-19 22:10:00,68.5,65.5,29.62,SSE,158,2.3,2.3,90,0.00,CLR,CLR,0.10,WeatherDisplay:10.37,2013-09-20 02:10:00,
2013-09-19 22:15:00,68.7,65.7,29.62,SE,135,1.1,1.1,90,0.00,CLR,CLR,0.10,WeatherDisplay:10.37,2013-09-20 02:15:00,
2013-09-19 22:20:00,68.7,65.7,29.62,SW,225,0.0,0.0,90,0.00,CLR,CLR,0.10,WeatherDisplay:10.37,2013-09-20 02:20:00,
2013-09-19 22:25:00,68.7,65.7,29.62,SE,135,0.0,0.0,90,0.00,CLR,CLR,0.10,WeatherDisplay:10.37,2013-09-20 02:25:00,
2013-09-19 22:31:00,68.7,65.7,29.62,SE,135,0.0,0.0,90,0.00,CLR,CLR,0.10,WeatherDisplay:10.37,2013-09-20 02:31:00,
2013-09-19 22:36:00,68.7,65.7,29.62,SSE,158,2.3,2.3,90,0.00,CLR,CLR,0.10,WeatherDisplay:10.37,2013-09-20 02:36:00,
2013-09-19 22:41:00,68.7,65.7,29.63,SSE,158,3.5,3.5,90,0.00,CLR,CLR,0.10,WeatherDisplay:10.37,2013-09-20 02:41:00,
2013-09-19 22:46:00,68.7,65.3,29.63,SE,135,1.1,1.1,89,0.00,CLR,CLR,0.10,WeatherDisplay:10.37,2013-09-20 02:46:00,
2013-09-19 22:51:00,68.7,65.3,29.62,SE,135,1.3,1.3,89,0.00,CLR,CLR,0.10,WeatherDisplay:10.37,2013-09-20 02:51:00,
2013-09-19 22:56:00,68.9,65.5,29.62,South,180,0.0,0.0,89,0.00,CLR,CLR,0.10,WeatherDisplay:10.37,2013-09-20 02:56:00,
2013-09-19 23:01:00,68.7,65.3,29.62,ESE,112,1.1,1.1,89,0.00,CLR,CLR,0.10,WeatherDisplay:10.37,2013-09-20 03:01:00,
2013-09-19 23:06:00,68.7,65.3,29.62,SE,135,1.6,1.6,89,0.00,CLR,CLR,0.10,WeatherDisplay:10.37,2013-09-20 03:06:00,
2013-09-19 23:11:00,68.7,65.3,29.62,SE,135,1.6,1.6,89,0.00,CLR,CLR,0.10,WeatherDisplay:10.37,2013-09-20 03:11:00,
2013-09-19 23:16:00,68.7,65.3,29.61,SE,135,0.0,1.1,89,0.00,CLR,CLR,0.10,WeatherDisplay:10.37,2013-09-20 03:16:00,
2013-09-19 23:21:00,68.7,65.3,29.61,SSE,158,0.0,0.0,89,0.00,CLR,CLR,0.10,WeatherDisplay:10.37,2013-09-20 03:21:00,
2013-09-19 23:26:00,68.5,65.2,29.62,SE,135,1.1,1.1,89,0.00,CLR,CLR,0.10,WeatherDisplay:10.37,2013-09-20 03:26:00,
2013-09-19 23:31:00,68.5,65.5,29.61,SSE,158,1.1,1.1,90,0.00,CLR,CLR,0.10,WeatherDisplay:10.37,2013-09-20 03:31:00,
2013-09-19 23:36:00,68.4,65.3,29.62,ESE,112,1.3,1.3,90,0.00,CLR,CLR,0.10,WeatherDisplay:10.37,2013-09-20 03:36:00,
2013-09-19 23:41:00,68.4,65.3,29.61,SSE,158,0.0,0.0,90,0.00,CLR,CLR,0.10,WeatherDisplay:10.37,2013-09-20 03:41:00,
2013-09-19 23:46:00,68.2,64.8,29.61,SE,135,1.1,1.1,89,0.00,CLR,CLR,0.10,WeatherDisplay:10.37,2013-09-20 03:46:00,
2013-09-19 23:51:00,68.2,64.8,29.61,SE,135,0.7,0.7,89,0.00,CLR,CLR,0.10,WeatherDisplay:10.37,2013-09-20 03:51:00,
2013-09-19 23:56:00,68.0,64.6,29.60,SE,135,0.0,0.0,89,0.00,CLR,CLR,0.10,WeatherDisplay:10.37,2013-09-20 03:56:00,